createdAt,value
2019-02-15T00:00:31.230Z,4.80
2019-02-15T00:05:33.009Z,4.77
2019-02-15T00:10:34.569Z,4.75
2019-02-15T00:15:36.521Z,4.78
2019-02-15T00:20:48.945Z,4.77
2019-02-15T00:25:50.494Z,4.77
2019-02-15T00:30:52.320Z,4.77
2019-02-15T00:35:53.989Z,4.76
2019-02-15T00:40:55.697Z,4.74
2019-02-15T00:46:14.117Z,4.75
2019-02-15T00:51:17.613Z,4.74
2019-02-15T00:56:23.920Z,4.73
2019-02-15T01:01:43.440Z,4.73
2019-02-15T01:06:46.898Z,4.74
2019-02-15T01:11:50.496Z,4.74
2019-02-15T01:16:52.292Z,4.74
2019-02-15T01:21:53.986Z,4.75
2019-02-15T01:26:57.441Z,4.71
2019-02-15T01:32:08.194Z,4.69
2019-02-15T01:37:14.530Z,4.68
2019-02-15T01:42:17.994Z,4.67
2019-02-15T01:47:20.108Z,4.68
2019-02-15T01:52:21.662Z,4.65
2019-02-15T01:57:23.275Z,4.61
2019-02-15T02:02:26.729Z,4.60
2019-02-15T02:07:28.526Z,4.55
2019-02-15T02:12:30.128Z,4.50
2019-02-15T02:17:31.874Z,4.50
2019-02-15T02:22:33.433Z,4.52
2019-02-15T02:27:35.054Z,4.52
2019-02-15T02:32:36.626Z,4.50
2019-02-15T02:37:38.289Z,4.44
2019-02-15T02:42:39.864Z,4.46
2019-02-15T02:47:41.463Z,4.43
2019-02-15T02:52:45.997Z,4.44
2019-02-15T02:57:47.649Z,4.45
2019-02-15T03:02:49.206Z,4.46
2019-02-15T03:07:52.291Z,4.45
2019-02-15T03:12:53.945Z,4.44
2019-02-15T03:17:55.578Z,4.49
2019-02-15T03:22:57.133Z,4.49
2019-02-15T03:27:58.755Z,4.50
2019-02-15T03:33:00.400Z,4.50
2019-02-15T03:38:07.175Z,4.48
2019-02-15T03:43:08.930Z,4.50
2019-02-15T03:48:10.488Z,4.52
2019-02-15T03:53:12.050Z,4.47
2019-02-15T03:58:13.751Z,4.47
2019-02-15T04:03:15.511Z,4.47
2019-02-15T04:08:17.059Z,4.45
2019-02-15T04:13:18.773Z,4.45
2019-02-15T04:18:23.426Z,4.44
2019-02-15T04:23:24.988Z,4.43
2019-02-15T04:28:26.590Z,4.40
2019-02-15T04:33:28.190Z,4.36
2019-02-15T04:38:29.962Z,4.34
2019-02-15T04:43:31.556Z,4.31
2019-02-15T04:48:33.109Z,4.31
2019-02-15T04:53:34.669Z,4.37
2019-02-15T04:58:36.292Z,4.38
2019-02-15T05:03:37.853Z,4.38
2019-02-15T05:08:39.416Z,4.40
2019-02-15T05:13:41.338Z,4.44
2019-02-15T05:18:43.061Z,4.46
2019-02-15T05:23:44.612Z,4.47
2019-02-15T05:28:46.219Z,4.47
2019-02-15T05:33:47.855Z,4.43
2019-02-15T05:38:49.499Z,4.42
2019-02-15T05:43:52.173Z,4.41
2019-02-15T05:48:53.730Z,4.38
2019-02-15T05:53:55.281Z,4.37
2019-02-15T05:58:57.209Z,4.42
2019-02-15T06:03:58.761Z,4.45
2019-02-15T06:09:00.354Z,4.45
2019-02-15T06:14:01.966Z,4.44
2019-02-15T06:19:03.567Z,4.44
2019-02-15T06:24:05.122Z,4.46
2019-02-15T06:29:06.738Z,4.45
2019-02-15T06:34:08.373Z,4.46
2019-02-15T06:39:09.932Z,4.43
2019-02-15T06:44:12.250Z,4.43
2019-02-15T06:49:13.801Z,4.42
2019-02-15T06:54:15.364Z,4.46
2019-02-15T06:59:16.924Z,4.50
2019-02-15T07:04:20.396Z,4.48
2019-02-15T07:09:21.958Z,4.47
2019-02-15T07:14:23.762Z,4.50
2019-02-15T07:19:25.541Z,4.49
2019-02-15T07:24:27.106Z,4.52
2019-02-15T07:29:28.957Z,4.50
2019-02-15T07:34:30.575Z,4.49
2019-02-15T07:39:32.208Z,4.49
2019-02-15T07:44:33.765Z,4.47
2019-02-15T07:49:35.325Z,4.43
2019-02-15T07:54:36.926Z,4.44
2019-02-15T07:59:38.589Z,4.46
2019-02-15T08:04:40.505Z,4.47
2019-02-15T08:09:42.101Z,4.51
2019-02-15T08:14:43.833Z,4.55
2019-02-15T08:19:45.562Z,4.54
2019-02-15T08:24:47.428Z,4.50
2019-02-15T08:29:48.984Z,4.51
2019-02-15T08:34:50.541Z,4.48
2019-02-15T08:39:52.142Z,4.54
2019-02-15T08:44:53.857Z,4.63
2019-02-15T08:49:55.434Z,4.70
2019-02-15T08:54:56.996Z,4.68
2019-02-15T08:59:58.560Z,4.78
2019-02-15T09:05:01.875Z,4.83
2019-02-15T09:10:10.345Z,4.91
2019-02-15T09:15:16.730Z,4.97
2019-02-15T09:20:18.460Z,5.04
2019-02-15T09:25:20.044Z,5.09
2019-02-15T09:30:21.608Z,5.18
2019-02-15T09:35:23.197Z,5.27
2019-02-15T09:40:24.815Z,5.18
2019-02-15T09:45:26.374Z,5.28
2019-02-15T09:50:27.944Z,5.41
2019-02-15T09:55:29.518Z,5.54
2019-02-15T10:00:31.078Z,5.58
2019-02-15T10:05:32.705Z,5.56
2019-02-15T10:10:34.294Z,5.71
2019-02-15T10:15:35.849Z,5.71
2019-02-15T10:20:37.546Z,5.68
2019-02-15T10:25:39.114Z,5.71
2019-02-15T10:30:40.776Z,5.79
2019-02-15T10:35:42.585Z,5.80
2019-02-15T10:40:44.187Z,5.90
2019-02-15T10:45:45.838Z,6.08
2019-02-15T10:50:47.504Z,6.27
2019-02-15T10:55:49.218Z,6.74
2019-02-15T11:00:50.770Z,7.04
2019-02-15T11:05:52.525Z,7.36
2019-02-15T11:10:54.119Z,8.37
2019-02-15T11:15:56.006Z,8.21
2019-02-15T11:20:57.664Z,8.42
2019-02-15T11:25:59.358Z,9.06
2019-02-15T11:31:00.929Z,8.94
2019-02-15T11:36:02.831Z,8.68
2019-02-15T11:41:10.975Z,8.68
2019-02-15T11:46:07.979Z,9.29
2019-02-15T11:51:09.681Z,10.36
2019-02-15T11:56:11.281Z,11.33
2019-02-15T12:01:12.850Z,10.97
2019-02-15T12:06:14.510Z,10.11
2019-02-15T12:11:16.066Z,11.01
2019-02-15T12:16:17.654Z,11.83
2019-02-15T12:21:19.421Z,12.24
2019-02-15T12:26:21.026Z,12.61
2019-02-15T12:31:22.608Z,12.98
2019-02-15T12:36:24.228Z,13.40
2019-02-15T12:41:25.783Z,12.42
2019-02-15T12:46:27.458Z,12.57
2019-02-15T12:51:32.242Z,11.82
2019-02-15T12:56:33.843Z,11.79
2019-02-15T13:01:35.511Z,11.65
2019-02-15T13:06:37.173Z,12.17
2019-02-15T13:11:39.843Z,12.72
2019-02-15T13:16:41.411Z,13.10
2019-02-15T13:21:43.030Z,13.14
2019-02-15T13:26:44.633Z,12.82
2019-02-15T13:31:46.314Z,12.32
2019-02-15T13:36:47.977Z,12.39
2019-02-15T13:41:49.717Z,12.15
2019-02-15T13:46:51.383Z,11.98
2019-02-15T13:51:52.942Z,12.13
2019-02-15T13:56:54.552Z,12.29
2019-02-15T14:01:56.232Z,12.29
2019-02-15T14:06:57.941Z,12.26
2019-02-15T14:11:59.518Z,12.07
2019-02-15T14:17:01.106Z,11.93
2019-02-15T14:22:03.943Z,11.63
2019-02-15T14:27:05.528Z,11.53
2019-02-15T14:32:07.119Z,11.23
2019-02-15T14:37:09.009Z,11.20
2019-02-15T14:42:10.586Z,10.97
2019-02-15T14:47:12.150Z,10.82
2019-02-15T14:52:13.723Z,10.74
2019-02-15T14:57:15.292Z,10.65
2019-02-15T15:02:16.904Z,10.43
2019-02-15T15:07:18.533Z,10.33
2019-02-15T15:12:21.193Z,10.03
2019-02-15T15:17:22.767Z,9.66
2019-02-15T15:22:24.417Z,9.47
2019-02-15T15:27:25.978Z,9.21
2019-02-15T15:32:27.830Z,8.81
2019-02-15T15:37:29.938Z,8.59
2019-02-15T15:42:31.568Z,8.38
2019-02-15T15:47:33.359Z,8.21
2019-02-15T15:52:35.322Z,8.01
2019-02-15T15:57:37.043Z,7.86
2019-02-15T16:02:38.611Z,7.63
2019-02-15T16:07:40.454Z,7.48
2019-02-15T16:12:42.012Z,7.34
2019-02-15T16:17:43.579Z,7.27
2019-02-15T16:22:45.203Z,7.15
2019-02-15T16:27:46.759Z,7.05
2019-02-15T16:32:48.314Z,6.96
2019-02-15T16:37:49.952Z,6.86
2019-02-15T16:42:51.571Z,6.72
2019-02-15T16:47:53.175Z,6.62
2019-02-15T16:52:54.738Z,6.48
2019-02-15T16:57:56.309Z,6.31
2019-02-15T17:02:57.896Z,6.15
2019-02-15T17:07:59.466Z,6.09
2019-02-15T17:13:01.085Z,5.99
2019-02-15T17:18:02.714Z,5.91
2019-02-15T17:23:04.395Z,5.85
2019-02-15T17:28:05.964Z,5.81
2019-02-15T17:33:07.530Z,5.80
2019-02-15T17:38:09.333Z,5.70
2019-02-15T17:43:11.759Z,5.67
2019-02-15T17:48:13.385Z,5.64
2019-02-15T17:53:14.962Z,5.61
2019-02-15T17:58:16.635Z,5.54
2019-02-15T18:03:18.203Z,5.56
2019-02-15T18:08:19.763Z,5.54
2019-02-15T18:13:21.382Z,5.48
2019-02-15T18:18:24.079Z,5.44
2019-02-15T18:23:25.807Z,5.43
2019-02-15T18:28:27.648Z,5.42
2019-02-15T18:33:29.213Z,5.39
2019-02-15T18:38:30.806Z,5.38
2019-02-15T18:43:32.375Z,5.37
2019-02-15T18:48:33.970Z,5.36
2019-02-15T18:53:35.591Z,5.35
2019-02-15T18:58:37.151Z,5.33
2019-02-15T19:03:39.126Z,5.35
2019-02-15T19:08:40.727Z,5.33
2019-02-15T19:13:42.334Z,5.32
2019-02-15T19:18:43.917Z,5.31
2019-02-15T19:23:45.729Z,5.29
2019-02-15T19:28:49.203Z,5.26
2019-02-15T19:33:50.882Z,5.23
2019-02-15T19:38:52.442Z,5.22
2019-02-15T19:43:54.252Z,5.22
2019-02-15T19:48:56.133Z,5.24
2019-02-15T19:53:58.317Z,5.22
2019-02-15T19:59:00.126Z,5.21
2019-02-15T20:04:01.725Z,5.20
2019-02-15T20:09:05.037Z,5.19
2019-02-15T20:14:08.114Z,5.21
2019-02-15T20:19:09.690Z,5.20
2019-02-15T20:24:11.418Z,5.17
2019-02-15T20:29:13.601Z,5.05
2019-02-15T20:34:15.186Z,4.97
2019-02-15T20:39:16.766Z,4.91
2019-02-15T20:44:20.456Z,4.81
2019-02-15T20:49:22.028Z,4.79
2019-02-15T20:54:23.640Z,4.77
2019-02-15T20:59:25.203Z,4.74
2019-02-15T21:04:26.764Z,4.73
2019-02-15T21:09:28.505Z,4.67
2019-02-15T21:14:30.080Z,4.63
2019-02-15T21:19:31.692Z,4.57
2019-02-15T21:24:33.341Z,4.60
2019-02-15T21:29:34.975Z,4.56
2019-02-15T21:34:36.537Z,4.53
2019-02-15T21:39:38.104Z,4.55
2019-02-15T21:44:39.681Z,4.53
2019-02-15T21:49:41.260Z,4.52
2019-02-15T21:54:42.875Z,4.54
2019-02-15T21:59:44.466Z,4.54
2019-02-15T22:04:47.130Z,4.55
2019-02-15T22:09:49.937Z,4.52
2019-02-15T22:14:51.496Z,4.48
2019-02-15T22:19:53.168Z,4.45
2019-02-15T22:24:54.825Z,4.35
2019-02-15T22:29:56.461Z,4.32
2019-02-15T22:34:58.192Z,4.28
2019-02-15T22:40:23.809Z,4.27
2019-02-15T22:45:25.382Z,4.26
2019-02-15T22:50:35.350Z,4.34
2019-02-15T22:55:30.406Z,4.38
2019-02-15T23:00:56.632Z,4.35
2019-02-15T23:05:58.701Z,4.35
2019-02-15T23:11:00.362Z,4.32
2019-02-15T23:16:02.037Z,4.31
2019-02-15T23:21:03.806Z,4.30
2019-02-15T23:26:06.588Z,4.31
2019-02-15T23:31:08.659Z,4.29
2019-02-15T23:36:10.227Z,4.28
2019-02-15T23:41:11.845Z,4.31
2019-02-15T23:46:13.438Z,4.30
2019-02-15T23:51:15.006Z,4.29
2019-02-15T23:56:16.572Z,4.30
